sensor_id;sensor_type;location;lat;lon;timestamp;P1;durP1;ratioP1;P2;durP2;ratioP2
15043;SDS011;7619;48.562;8.910;2023-03-21T00:01:13;2.43;;;2.10;;
15043;SDS011;7619;48.562;8.910;2023-03-21T00:03:41;3.47;;;2.20;;
15043;SDS011;7619;48.562;8.910;2023-03-21T00:06:12;5.40;;;2.43;;
15043;SDS011;7619;48.562;8.910;2023-03-21T00:08:41;2.17;;;1.97;;
15043;SDS011;7619;48.562;8.910;2023-03-21T00:11:10;2.30;;;1.93;;
15043;SDS011;7619;48.562;8.910;2023-03-21T00:13:39;3.00;;;2.33;;
15043;SDS011;7619;48.562;8.910;2023-03-21T00:16:09;5.23;;;2.53;;
15043;SDS011;7619;48.562;8.910;2023-03-21T00:18:41;2.87;;;2.47;;
15043;SDS011;7619;48.562;8.910;2023-03-21T00:21:12;5.50;;;2.80;;
15043;SDS011;7619;48.562;8.910;2023-03-21T00:23:43;3.83;;;2.60;;
15043;SDS011;7619;48.562;8.910;2023-03-21T00:26:13;2.43;;;2.20;;
15043;SDS011;7619;48.562;8.910;2023-03-21T00:28:43;3.77;;;2.50;;
15043;SDS011;7619;48.562;8.910;2023-03-21T00:31:11;2.90;;;2.40;;
15043;SDS011;7619;48.562;8.910;2023-03-21T00:33:41;3.33;;;2.10;;
15043;SDS011;7619;48.562;8.910;2023-03-21T00:36:09;2.70;;;2.17;;
15043;SDS011;7619;48.562;8.910;2023-03-21T00:38:40;4.20;;;3.10;;
15043;SDS011;7619;48.562;8.910;2023-03-21T00:41:09;2.43;;;2.23;;
15043;SDS011;7619;48.562;8.910;2023-03-21T00:43:37;2.43;;;2.13;;
15043;SDS011;7619;48.562;8.910;2023-03-21T00:46:05;2.27;;;2.07;;
15043;SDS011;7619;48.562;8.910;2023-03-21T00:48:35;2.97;;;2.13;;
15043;SDS011;7619;48.562;8.910;2023-03-21T00:51:09;3.33;;;2.80;;
15043;SDS011;7619;48.562;8.910;2023-03-21T00:53:39;4.07;;;2.47;;
15043;SDS011;7619;48.562;8.910;2023-03-21T00:56:08;4.33;;;2.30;;
15043;SDS011;7619;48.562;8.910;2023-03-21T00:58:35;3.50;;;2.47;;
15043;SDS011;7619;48.562;8.910;2023-03-21T01:01:05;3.70;;;2.47;;
15043;SDS011;7619;48.562;8.910;2023-03-21T01:03:34;2.80;;;2.30;;
15043;SDS011;7619;48.562;8.910;2023-03-21T01:06:05;2.30;;;2.10;;
15043;SDS011;7619;48.562;8.910;2023-03-21T01:08:38;5.33;;;2.53;;
15043;SDS011;7619;48.562;8.910;2023-03-21T01:11:09;3.20;;;2.27;;
15043;SDS011;7619;48.562;8.910;2023-03-21T01:13:41;3.53;;;3.10;;
15043;SDS011;7619;48.562;8.910;2023-03-21T01:16:09;2.97;;;2.20;;
15043;SDS011;7619;48.562;8.910;2023-03-21T01:18:38;2.73;;;2.20;;
15043;SDS011;7619;48.562;8.910;2023-03-21T01:21:08;2.83;;;2.37;;
15043;SDS011;7619;48.562;8.910;2023-03-21T01:23:38;2.70;;;2.30;;
15043;SDS011;7619;48.562;8.910;2023-03-21T01:26:08;3.00;;;2.50;;
15043;SDS011;7619;48.562;8.910;2023-03-21T01:28:39;2.47;;;2.23;;
15043;SDS011;7619;48.562;8.910;2023-03-21T01:31:10;3.37;;;2.80;;
15043;SDS011;7619;48.562;8.910;2023-03-21T01:33:40;4.80;;;2.50;;
15043;SDS011;7619;48.562;8.910;2023-03-21T01:36:08;2.73;;;2.23;;
15043;SDS011;7619;48.562;8.910;2023-03-21T01:38:41;2.70;;;2.40;;
15043;SDS011;7619;48.562;8.910;2023-03-21T01:41:13;3.23;;;2.70;;
15043;SDS011;7619;48.562;8.910;2023-03-21T01:43:46;3.30;;;2.57;;
15043;SDS011;7619;48.562;8.910;2023-03-21T01:46:25;4.20;;;2.90;;
15043;SDS011;7619;48.562;8.910;2023-03-21T01:48:59;2.93;;;2.63;;
15043;SDS011;7619;48.562;8.910;2023-03-21T01:51:27;3.87;;;2.80;;
15043;SDS011;7619;48.562;8.910;2023-03-21T01:53:58;4.10;;;2.50;;
15043;SDS011;7619;48.562;8.910;2023-03-21T01:56:28;4.47;;;2.53;;
15043;SDS011;7619;48.562;8.910;2023-03-21T01:59:01;3.53;;;2.70;;
15043;SDS011;7619;48.562;8.910;2023-03-21T02:01:30;4.07;;;2.80;;
15043;SDS011;7619;48.562;8.910;2023-03-21T02:04:00;4.23;;;2.67;;
15043;SDS011;7619;48.562;8.910;2023-03-21T02:06:32;3.00;;;2.53;;
15043;SDS011;7619;48.562;8.910;2023-03-21T02:09:06;3.50;;;3.03;;
15043;SDS011;7619;48.562;8.910;2023-03-21T02:11:38;4.00;;;2.90;;
15043;SDS011;7619;48.562;8.910;2023-03-21T02:14:08;4.60;;;3.07;;
15043;SDS011;7619;48.562;8.910;2023-03-21T02:16:41;3.67;;;2.70;;
15043;SDS011;7619;48.562;8.910;2023-03-21T02:19:28;4.13;;;3.17;;
15043;SDS011;7619;48.562;8.910;2023-03-21T02:22:18;5.37;;;2.47;;
15043;SDS011;7619;48.562;8.910;2023-03-21T02:28:14;3.57;;;3.10;;
15043;SDS011;7619;48.562;8.910;2023-03-21T02:33:42;4.70;;;2.67;;
15043;SDS011;7619;48.562;8.910;2023-03-21T02:36:22;4.23;;;2.80;;
15043;SDS011;7619;48.562;8.910;2023-03-21T02:38:55;3.47;;;2.20;;
15043;SDS011;7619;48.562;8.910;2023-03-21T02:41:27;4.83;;;2.90;;
15043;SDS011;7619;48.562;8.910;2023-03-21T02:43:55;4.77;;;2.97;;
15043;SDS011;7619;48.562;8.910;2023-03-21T02:46:27;3.43;;;2.40;;
15043;SDS011;7619;48.562;8.910;2023-03-21T02:49:01;3.13;;;2.40;;
15043;SDS011;7619;48.562;8.910;2023-03-21T02:51:33;3.67;;;3.13;;
15043;SDS011;7619;48.562;8.910;2023-03-21T02:54:04;3.77;;;3.37;;
15043;SDS011;7619;48.562;8.910;2023-03-21T02:56:36;3.20;;;2.90;;
15043;SDS011;7619;48.562;8.910;2023-03-21T02:59:06;2.70;;;2.50;;
15043;SDS011;7619;48.562;8.910;2023-03-21T03:01:34;4.23;;;2.40;;
15043;SDS011;7619;48.562;8.910;2023-03-21T03:04:03;4.70;;;3.07;;
15043;SDS011;7619;48.562;8.910;2023-03-21T03:06:45;3.50;;;2.33;;
15043;SDS011;7619;48.562;8.910;2023-03-21T03:09:21;4.80;;;3.10;;
15043;SDS011;7619;48.562;8.910;2023-03-21T03:11:54;5.30;;;2.50;;
15043;SDS011;7619;48.562;8.910;2023-03-21T03:14:29;6.83;;;3.17;;
15043;SDS011;7619;48.562;8.910;2023-03-21T03:17:09;6.07;;;2.90;;
15043;SDS011;7619;48.562;8.910;2023-03-21T03:19:40;2.60;;;2.40;;
15043;SDS011;7619;48.562;8.910;2023-03-21T03:22:12;4.07;;;3.20;;
15043;SDS011;7619;48.562;8.910;2023-03-21T03:24:44;10.13;;;3.10;;
15043;SDS011;7619;48.562;8.910;2023-03-21T03:27:18;4.30;;;3.07;;
15043;SDS011;7619;48.562;8.910;2023-03-21T03:29:47;4.40;;;3.00;;
15043;SDS011;7619;48.562;8.910;2023-03-21T03:32:18;3.40;;;2.80;;
15043;SDS011;7619;48.562;8.910;2023-03-21T03:34:51;4.43;;;3.00;;
15043;SDS011;7619;48.562;8.910;2023-03-21T03:37:22;3.73;;;2.77;;
15043;SDS011;7619;48.562;8.910;2023-03-21T03:39:54;3.60;;;2.97;;
15043;SDS011;7619;48.562;8.910;2023-03-21T03:42:28;3.17;;;2.57;;
15043;SDS011;7619;48.562;8.910;2023-03-21T03:44:55;5.50;;;2.80;;
15043;SDS011;7619;48.562;8.910;2023-03-21T03:47:25;5.27;;;3.13;;
15043;SDS011;7619;48.562;8.910;2023-03-21T03:49:56;8.10;;;3.10;;
15043;SDS011;7619;48.562;8.910;2023-03-21T03:52:26;7.13;;;3.57;;
15043;SDS011;7619;48.562;8.910;2023-03-21T03:54:54;3.57;;;3.07;;
15043;SDS011;7619;48.562;8.910;2023-03-21T03:57:24;4.27;;;3.13;;
15043;SDS011;7619;48.562;8.910;2023-03-21T03:59:54;3.93;;;2.90;;
15043;SDS011;7619;48.562;8.910;2023-03-21T04:02:23;3.63;;;3.00;;
15043;SDS011;7619;48.562;8.910;2023-03-21T04:04:52;2.93;;;2.60;;
15043;SDS011;7619;48.562;8.910;2023-03-21T04:07:22;3.67;;;2.70;;
15043;SDS011;7619;48.562;8.910;2023-03-21T04:09:53;4.37;;;3.07;;
15043;SDS011;7619;48.562;8.910;2023-03-21T04:12:22;2.53;;;2.33;;
15043;SDS011;7619;48.562;8.910;2023-03-21T04:14:52;4.70;;;3.23;;
15043;SDS011;7619;48.562;8.910;2023-03-21T04:17:20;3.50;;;3.17;;
15043;SDS011;7619;48.562;8.910;2023-03-21T04:19:48;3.57;;;2.83;;
15043;SDS011;7619;48.562;8.910;2023-03-21T04:22:17;3.13;;;2.83;;
15043;SDS011;7619;48.562;8.910;2023-03-21T04:24:46;3.63;;;2.90;;
15043;SDS011;7619;48.562;8.910;2023-03-21T04:27:15;7.73;;;3.37;;
15043;SDS011;7619;48.562;8.910;2023-03-21T04:29:44;5.70;;;3.27;;
15043;SDS011;7619;48.562;8.910;2023-03-21T04:32:11;4.90;;;2.93;;
15043;SDS011;7619;48.562;8.910;2023-03-21T04:34:43;5.17;;;2.93;;
15043;SDS011;7619;48.562;8.910;2023-03-21T04:37:15;6.93;;;3.17;;
15043;SDS011;7619;48.562;8.910;2023-03-21T04:39:44;4.43;;;3.17;;
15043;SDS011;7619;48.562;8.910;2023-03-21T04:42:13;3.50;;;2.83;;
15043;SDS011;7619;48.562;8.910;2023-03-21T04:44:44;3.30;;;3.00;;
15043;SDS011;7619;48.562;8.910;2023-03-21T04:47:13;4.43;;;2.70;;
15043;SDS011;7619;48.562;8.910;2023-03-21T04:49:41;3.50;;;2.70;;
15043;SDS011;7619;48.562;8.910;2023-03-21T04:52:11;4.00;;;3.37;;
15043;SDS011;7619;48.562;8.910;2023-03-21T04:54:39;6.77;;;3.27;;
15043;SDS011;7619;48.562;8.910;2023-03-21T04:57:09;5.40;;;3.37;;
15043;SDS011;7619;48.562;8.910;2023-03-21T04:59:38;4.00;;;3.17;;
15043;SDS011;7619;48.562;8.910;2023-03-21T05:02:07;3.77;;;3.03;;
15043;SDS011;7619;48.562;8.910;2023-03-21T05:04:36;3.67;;;2.93;;
15043;SDS011;7619;48.562;8.910;2023-03-21T05:07:05;3.63;;;2.90;;
15043;SDS011;7619;48.562;8.910;2023-03-21T05:09:35;4.83;;;3.03;;
15043;SDS011;7619;48.562;8.910;2023-03-21T05:12:05;6.50;;;2.93;;
15043;SDS011;7619;48.562;8.910;2023-03-21T05:14:33;6.13;;;2.90;;
15043;SDS011;7619;48.562;8.910;2023-03-21T05:17:01;4.07;;;3.23;;
15043;SDS011;7619;48.562;8.910;2023-03-21T05:19:30;4.00;;;3.60;;
15043;SDS011;7619;48.562;8.910;2023-03-21T05:22:05;6.80;;;3.07;;
15043;SDS011;7619;48.562;8.910;2023-03-21T05:24:35;4.27;;;2.93;;
15043;SDS011;7619;48.562;8.910;2023-03-21T05:27:07;4.77;;;3.40;;
15043;SDS011;7619;48.562;8.910;2023-03-21T05:29:38;3.53;;;3.10;;
15043;SDS011;7619;48.562;8.910;2023-03-21T05:32:07;3.93;;;3.10;;
15043;SDS011;7619;48.562;8.910;2023-03-21T05:34:36;6.50;;;3.37;;
15043;SDS011;7619;48.562;8.910;2023-03-21T05:37:05;4.63;;;3.10;;
15043;SDS011;7619;48.562;8.910;2023-03-21T05:39:34;4.73;;;3.20;;
15043;SDS011;7619;48.562;8.910;2023-03-21T05:42:03;3.47;;;2.80;;
15043;SDS011;7619;48.562;8.910;2023-03-21T05:44:31;4.37;;;3.33;;
15043;SDS011;7619;48.562;8.910;2023-03-21T05:46:59;4.47;;;3.63;;
15043;SDS011;7619;48.562;8.910;2023-03-21T05:49:27;3.80;;;2.70;;
15043;SDS011;7619;48.562;8.910;2023-03-21T05:51:56;4.17;;;3.00;;
15043;SDS011;7619;48.562;8.910;2023-03-21T05:54:24;4.57;;;2.90;;
15043;SDS011;7619;48.562;8.910;2023-03-21T05:56:54;3.17;;;2.87;;
15043;SDS011;7619;48.562;8.910;2023-03-21T06:01:57;3.53;;;2.53;;
15043;SDS011;7619;48.562;8.910;2023-03-21T06:04:27;4.87;;;3.03;;
15043;SDS011;7619;48.562;8.910;2023-03-21T06:06:54;4.63;;;2.77;;
15043;SDS011;7619;48.562;8.910;2023-03-21T06:09:23;4.07;;;3.20;;
15043;SDS011;7619;48.562;8.910;2023-03-21T06:11:53;2.73;;;2.27;;
15043;SDS011;7619;48.562;8.910;2023-03-21T06:14:24;2.87;;;2.67;;
15043;SDS011;7619;48.562;8.910;2023-03-21T06:16:52;3.43;;;2.47;;
15043;SDS011;7619;48.562;8.910;2023-03-21T06:19:20;2.83;;;2.43;;
15043;SDS011;7619;48.562;8.910;2023-03-21T06:21:48;3.97;;;3.27;;
15043;SDS011;7619;48.562;8.910;2023-03-21T06:24:16;7.37;;;2.33;;
15043;SDS011;7619;48.562;8.910;2023-03-21T06:26:44;4.07;;;2.70;;
15043;SDS011;7619;48.562;8.910;2023-03-21T06:29:12;3.30;;;2.70;;
15043;SDS011;7619;48.562;8.910;2023-03-21T06:31:40;4.07;;;2.50;;
15043;SDS011;7619;48.562;8.910;2023-03-21T06:34:08;3.93;;;2.33;;
15043;SDS011;7619;48.562;8.910;2023-03-21T06:36:38;4.03;;;2.40;;
15043;SDS011;7619;48.562;8.910;2023-03-21T06:39:06;4.10;;;2.43;;
15043;SDS011;7619;48.562;8.910;2023-03-21T06:41:36;3.43;;;2.17;;
15043;SDS011;7619;48.562;8.910;2023-03-21T06:44:04;2.60;;;2.23;;
15043;SDS011;7619;48.562;8.910;2023-03-21T06:46:33;3.77;;;2.40;;
15043;SDS011;7619;48.562;8.910;2023-03-21T06:49:02;3.20;;;2.33;;
15043;SDS011;7619;48.562;8.910;2023-03-21T06:51:30;2.87;;;2.20;;
15043;SDS011;7619;48.562;8.910;2023-03-21T06:53:58;3.67;;;2.40;;
15043;SDS011;7619;48.562;8.910;2023-03-21T06:56:26;2.70;;;2.37;;
15043;SDS011;7619;48.562;8.910;2023-03-21T06:58:55;3.30;;;2.20;;
15043;SDS011;7619;48.562;8.910;2023-03-21T07:01:25;2.47;;;2.13;;
15043;SDS011;7619;48.562;8.910;2023-03-21T07:03:53;2.83;;;1.93;;
15043;SDS011;7619;48.562;8.910;2023-03-21T07:06:23;3.93;;;1.80;;
15043;SDS011;7619;48.562;8.910;2023-03-21T07:08:53;5.87;;;2.00;;
15043;SDS011;7619;48.562;8.910;2023-03-21T07:11:23;2.37;;;2.17;;
15043;SDS011;7619;48.562;8.910;2023-03-21T07:13:52;3.37;;;2.70;;
15043;SDS011;7619;48.562;8.910;2023-03-21T07:16:21;2.63;;;2.20;;
15043;SDS011;7619;48.562;8.910;2023-03-21T07:18:51;2.40;;;2.20;;
15043;SDS011;7619;48.562;8.910;2023-03-21T07:21:19;4.60;;;1.70;;
15043;SDS011;7619;48.562;8.910;2023-03-21T07:23:49;2.17;;;1.83;;
15043;SDS011;7619;48.562;8.910;2023-03-21T07:26:17;2.77;;;2.00;;
15043;SDS011;7619;48.562;8.910;2023-03-21T07:28:45;1.80;;;1.50;;
15043;SDS011;7619;48.562;8.910;2023-03-21T07:31:13;1.80;;;1.60;;
15043;SDS011;7619;48.562;8.910;2023-03-21T07:33:41;1.97;;;1.77;;
15043;SDS011;7619;48.562;8.910;2023-03-21T07:36:11;2.07;;;1.87;;
15043;SDS011;7619;48.562;8.910;2023-03-21T07:38:41;2.93;;;1.67;;
15043;SDS011;7619;48.562;8.910;2023-03-21T07:41:09;2.43;;;1.80;;
15043;SDS011;7619;48.562;8.910;2023-03-21T07:43:37;2.37;;;2.00;;
15043;SDS011;7619;48.562;8.910;2023-03-21T07:46:05;2.00;;;1.80;;
15043;SDS011;7619;48.562;8.910;2023-03-21T07:48:34;3.87;;;2.00;;
15043;SDS011;7619;48.562;8.910;2023-03-21T07:51:03;3.83;;;1.70;;
15043;SDS011;7619;48.562;8.910;2023-03-21T07:53:33;2.00;;;1.90;;
15043;SDS011;7619;48.562;8.910;2023-03-21T07:56:01;2.63;;;2.10;;
15043;SDS011;7619;48.562;8.910;2023-03-21T07:58:29;3.37;;;2.37;;
15043;SDS011;7619;48.562;8.910;2023-03-21T08:00:59;2.57;;;1.70;;
15043;SDS011;7619;48.562;8.910;2023-03-21T08:03:29;2.40;;;2.07;;
15043;SDS011;7619;48.562;8.910;2023-03-21T08:05:59;3.10;;;2.20;;
15043;SDS011;7619;48.562;8.910;2023-03-21T08:08:27;2.03;;;1.73;;
15043;SDS011;7619;48.562;8.910;2023-03-21T08:10:55;3.27;;;2.53;;
15043;SDS011;7619;48.562;8.910;2023-03-21T08:13:24;5.47;;;2.17;;
15043;SDS011;7619;48.562;8.910;2023-03-21T08:15:53;2.77;;;2.10;;
15043;SDS011;7619;48.562;8.910;2023-03-21T08:18:22;2.57;;;2.27;;
15043;SDS011;7619;48.562;8.910;2023-03-21T08:20:52;2.30;;;2.03;;
15043;SDS011;7619;48.562;8.910;2023-03-21T08:23:19;2.33;;;1.80;;
15043;SDS011;7619;48.562;8.910;2023-03-21T08:25:50;3.40;;;1.83;;
15043;SDS011;7619;48.562;8.910;2023-03-21T08:28:20;2.77;;;2.13;;
15043;SDS011;7619;48.562;8.910;2023-03-21T08:30:48;2.87;;;1.60;;
15043;SDS011;7619;48.562;8.910;2023-03-21T08:33:17;2.07;;;1.77;;
15043;SDS011;7619;48.562;8.910;2023-03-21T08:35:46;3.43;;;1.70;;
15043;SDS011;7619;48.562;8.910;2023-03-21T08:38:14;3.53;;;1.90;;
15043;SDS011;7619;48.562;8.910;2023-03-21T08:40:42;2.13;;;1.93;;
15043;SDS011;7619;48.562;8.910;2023-03-21T08:43:11;2.50;;;2.13;;
15043;SDS011;7619;48.562;8.910;2023-03-21T08:45:40;2.20;;;1.93;;
15043;SDS011;7619;48.562;8.910;2023-03-21T08:48:08;3.13;;;2.00;;
15043;SDS011;7619;48.562;8.910;2023-03-21T08:50:37;2.77;;;2.17;;
15043;SDS011;7619;48.562;8.910;2023-03-21T08:53:06;2.40;;;1.90;;
15043;SDS011;7619;48.562;8.910;2023-03-21T08:55:34;2.37;;;2.17;;
15043;SDS011;7619;48.562;8.910;2023-03-21T09:01:13;2.17;;;1.80;;
15043;SDS011;7619;48.562;8.910;2023-03-21T09:03:43;2.97;;;2.00;;
15043;SDS011;7619;48.562;8.910;2023-03-21T09:06:10;3.00;;;2.00;;
15043;SDS011;7619;48.562;8.910;2023-03-21T09:08:40;3.00;;;1.80;;
15043;SDS011;7619;48.562;8.910;2023-03-21T09:11:08;1.60;;;1.50;;
15043;SDS011;7619;48.562;8.910;2023-03-21T09:13:38;2.37;;;1.90;;
15043;SDS011;7619;48.562;8.910;2023-03-21T09:16:06;7.27;;;2.23;;
15043;SDS011;7619;48.562;8.910;2023-03-21T09:18:35;2.20;;;1.97;;
15043;SDS011;7619;48.562;8.910;2023-03-21T09:21:12;3.10;;;1.73;;
15043;SDS011;7619;48.562;8.910;2023-03-21T09:23:40;2.43;;;2.07;;
15043;SDS011;7619;48.562;8.910;2023-03-21T09:26:11;2.40;;;1.87;;
15043;SDS011;7619;48.562;8.910;2023-03-21T09:28:41;2.87;;;2.27;;
15043;SDS011;7619;48.562;8.910;2023-03-21T09:31:11;2.50;;;1.90;;
15043;SDS011;7619;48.562;8.910;2023-03-21T09:33:42;2.33;;;1.90;;
15043;SDS011;7619;48.562;8.910;2023-03-21T09:36:11;3.23;;;1.83;;
15043;SDS011;7619;48.562;8.910;2023-03-21T09:38:41;3.10;;;2.00;;
15043;SDS011;7619;48.562;8.910;2023-03-21T09:41:14;2.50;;;2.30;;
15043;SDS011;7619;48.562;8.910;2023-03-21T09:43:44;2.37;;;2.00;;
15043;SDS011;7619;48.562;8.910;2023-03-21T09:46:21;2.80;;;1.87;;
15043;SDS011;7619;48.562;8.910;2023-03-21T09:49:21;3.47;;;2.40;;
15043;SDS011;7619;48.562;8.910;2023-03-21T09:51:54;3.10;;;2.03;;
15043;SDS011;7619;48.562;8.910;2023-03-21T09:54:24;2.60;;;2.40;;
15043;SDS011;7619;48.562;8.910;2023-03-21T09:56:53;2.93;;;2.20;;
15043;SDS011;7619;48.562;8.910;2023-03-21T10:04:39;2.10;;;1.90;;
15043;SDS011;7619;48.562;8.910;2023-03-21T10:10:05;4.13;;;2.37;;
15043;SDS011;7619;48.562;8.910;2023-03-21T10:12:38;2.43;;;2.23;;
15043;SDS011;7619;48.562;8.910;2023-03-21T10:15:06;3.17;;;2.47;;
15043;SDS011;7619;48.562;8.910;2023-03-21T10:17:40;2.57;;;2.37;;
15043;SDS011;7619;48.562;8.910;2023-03-21T10:20:13;2.33;;;2.13;;
15043;SDS011;7619;48.562;8.910;2023-03-21T10:22:42;2.83;;;2.50;;
15043;SDS011;7619;48.562;8.910;2023-03-21T10:25:13;4.30;;;3.13;;
15043;SDS011;7619;48.562;8.910;2023-03-21T10:27:41;2.33;;;2.10;;
15043;SDS011;7619;48.562;8.910;2023-03-21T10:38:44;2.87;;;2.63;;
15043;SDS011;7619;48.562;8.910;2023-03-21T10:47:24;2.67;;;2.20;;
15043;SDS011;7619;48.562;8.910;2023-03-21T10:49:52;4.07;;;1.93;;
15043;SDS011;7619;48.562;8.910;2023-03-21T10:52:21;1.90;;;1.73;;
15043;SDS011;7619;48.562;8.910;2023-03-21T10:54:52;1.67;;;1.57;;
15043;SDS011;7619;48.562;8.910;2023-03-21T10:57:34;3.90;;;1.90;;
15043;SDS011;7619;48.562;8.910;2023-03-21T11:00:04;3.17;;;2.47;;
15043;SDS011;7619;48.562;8.910;2023-03-21T11:05:17;2.13;;;1.80;;
15043;SDS011;7619;48.562;8.910;2023-03-21T11:07:46;3.13;;;2.10;;
15043;SDS011;7619;48.562;8.910;2023-03-21T11:10:25;2.07;;;1.87;;
15043;SDS011;7619;48.562;8.910;2023-03-21T11:12:46;1.70;;;1.60;;
15043;SDS011;7619;48.562;8.910;2023-03-21T11:17:55;2.20;;;1.93;;
15043;SDS011;7619;48.562;8.910;2023-03-21T11:20:24;2.83;;;1.70;;
15043;SDS011;7619;48.562;8.910;2023-03-21T11:22:53;3.00;;;1.50;;
15043;SDS011;7619;48.562;8.910;2023-03-21T11:25:26;2.20;;;2.00;;
15043;SDS011;7619;48.562;8.910;2023-03-21T11:27:56;2.03;;;1.50;;
15043;SDS011;7619;48.562;8.910;2023-03-21T11:30:28;1.87;;;1.53;;
15043;SDS011;7619;48.562;8.910;2023-03-21T11:33:00;2.73;;;1.60;;
15043;SDS011;7619;48.562;8.910;2023-03-21T11:35:32;1.10;;;1.00;;
15043;SDS011;7619;48.562;8.910;2023-03-21T11:38:03;5.30;;;1.13;;
15043;SDS011;7619;48.562;8.910;2023-03-21T11:40:33;1.00;;;0.90;;
15043;SDS011;7619;48.562;8.910;2023-03-21T11:45:56;2.43;;;1.00;;
15043;SDS011;7619;48.562;8.910;2023-03-21T11:48:27;1.40;;;1.27;;
15043;SDS011;7619;48.562;8.910;2023-03-21T11:50:59;1.50;;;1.20;;
15043;SDS011;7619;48.562;8.910;2023-03-21T11:53:31;1.30;;;1.20;;
15043;SDS011;7619;48.562;8.910;2023-03-21T11:56:09;1.63;;;1.20;;
15043;SDS011;7619;48.562;8.910;2023-03-21T11:58:47;1.67;;;1.50;;
15043;SDS011;7619;48.562;8.910;2023-03-21T12:01:17;2.10;;;1.43;;
15043;SDS011;7619;48.562;8.910;2023-03-21T12:04:02;1.47;;;1.10;;
15043;SDS011;7619;48.562;8.910;2023-03-21T12:09:30;1.33;;;1.20;;
15043;SDS011;7619;48.562;8.910;2023-03-21T12:12:08;4.80;;;1.90;;
15043;SDS011;7619;48.562;8.910;2023-03-21T12:14:41;1.50;;;1.40;;
15043;SDS011;7619;48.562;8.910;2023-03-21T12:17:18;2.23;;;1.50;;
15043;SDS011;7619;48.562;8.910;2023-03-21T12:19:55;2.17;;;1.40;;
15043;SDS011;7619;48.562;8.910;2023-03-21T12:22:35;3.83;;;1.73;;
15043;SDS011;7619;48.562;8.910;2023-03-21T12:25:10;3.60;;;1.40;;
15043;SDS011;7619;48.562;8.910;2023-03-21T12:27:43;4.27;;;1.87;;
15043;SDS011;7619;48.562;8.910;2023-03-21T12:30:26;2.30;;;1.40;;
15043;SDS011;7619;48.562;8.910;2023-03-21T12:33:00;1.57;;;1.47;;
15043;SDS011;7619;48.562;8.910;2023-03-21T12:35:33;3.27;;;1.23;;
15043;SDS011;7619;48.562;8.910;2023-03-21T12:40:55;1.60;;;1.10;;
15043;SDS011;7619;48.562;8.910;2023-03-21T12:43:26;1.47;;;1.37;;
15043;SDS011;7619;48.562;8.910;2023-03-21T12:46:07;1.60;;;1.33;;
15043;SDS011;7619;48.562;8.910;2023-03-21T12:48:37;1.30;;;1.20;;
15043;SDS011;7619;48.562;8.910;2023-03-21T12:51:10;1.80;;;1.20;;
15043;SDS011;7619;48.562;8.910;2023-03-21T12:53:48;3.67;;;1.30;;
15043;SDS011;7619;48.562;8.910;2023-03-21T12:56:26;1.27;;;1.07;;
15043;SDS011;7619;48.562;8.910;2023-03-21T12:58:57;1.20;;;1.10;;
15043;SDS011;7619;48.562;8.910;2023-03-21T13:01:29;1.90;;;1.43;;
15043;SDS011;7619;48.562;8.910;2023-03-21T13:07:16;2.17;;;1.17;;
15043;SDS011;7619;48.562;8.910;2023-03-21T13:09:47;2.40;;;1.10;;
15043;SDS011;7619;48.562;8.910;2023-03-21T13:12:23;0.97;;;0.83;;
15043;SDS011;7619;48.562;8.910;2023-03-21T13:15:06;0.87;;;0.87;;
15043;SDS011;7619;48.562;8.910;2023-03-21T13:17:57;1.23;;;0.80;;
15043;SDS011;7619;48.562;8.910;2023-03-21T13:20:27;0.60;;;0.50;;
15043;SDS011;7619;48.562;8.910;2023-03-21T13:22:58;1.10;;;0.80;;
15043;SDS011;7619;48.562;8.910;2023-03-21T13:25:30;1.13;;;0.60;;
15043;SDS011;7619;48.562;8.910;2023-03-21T13:28:00;0.63;;;0.63;;
15043;SDS011;7619;48.562;8.910;2023-03-21T13:30:29;0.50;;;0.50;;
15043;SDS011;7619;48.562;8.910;2023-03-21T13:33:03;0.50;;;0.50;;
15043;SDS011;7619;48.562;8.910;2023-03-21T13:35:34;1.43;;;0.63;;
15043;SDS011;7619;48.562;8.910;2023-03-21T13:38:09;1.70;;;0.50;;
15043;SDS011;7619;48.562;8.910;2023-03-21T13:40:41;0.47;;;0.33;;
15043;SDS011;7619;48.562;8.910;2023-03-21T13:45:56;0.80;;;0.40;;
15043;SDS011;7619;48.562;8.910;2023-03-21T13:48:40;0.90;;;0.70;;
15043;SDS011;7619;48.562;8.910;2023-03-21T13:51:40;0.30;;;0.30;;
15043;SDS011;7619;48.562;8.910;2023-03-21T13:54:19;0.40;;;0.40;;
15043;SDS011;7619;48.562;8.910;2023-03-21T13:56:51;0.70;;;0.70;;
15043;SDS011;7619;48.562;8.910;2023-03-21T13:59:36;0.30;;;0.30;;
15043;SDS011;7619;48.562;8.910;2023-03-21T14:02:26;0.50;;;0.40;;
15043;SDS011;7619;48.562;8.910;2023-03-21T14:05:00;1.13;;;0.77;;
15043;SDS011;7619;48.562;8.910;2023-03-21T14:07:29;0.40;;;0.40;;
15043;SDS011;7619;48.562;8.910;2023-03-21T14:09:59;1.20;;;0.50;;
15043;SDS011;7619;48.562;8.910;2023-03-21T14:12:29;0.50;;;0.50;;
15043;SDS011;7619;48.562;8.910;2023-03-21T14:15:00;1.43;;;0.63;;
15043;SDS011;7619;48.562;8.910;2023-03-21T14:17:30;0.30;;;0.30;;
15043;SDS011;7619;48.562;8.910;2023-03-21T14:20:02;1.33;;;0.70;;
15043;SDS011;7619;48.562;8.910;2023-03-21T14:22:36;0.50;;;0.50;;
15043;SDS011;7619;48.562;8.910;2023-03-21T14:25:09;0.37;;;0.30;;
15043;SDS011;7619;48.562;8.910;2023-03-21T14:27:40;0.83;;;0.50;;
15043;SDS011;7619;48.562;8.910;2023-03-21T14:30:18;0.67;;;0.63;;
15043;SDS011;7619;48.562;8.910;2023-03-21T14:32:46;0.40;;;0.40;;
15043;SDS011;7619;48.562;8.910;2023-03-21T14:35:14;0.40;;;0.40;;
15043;SDS011;7619;48.562;8.910;2023-03-21T14:37:45;0.93;;;0.60;;
15043;SDS011;7619;48.562;8.910;2023-03-21T14:42:56;1.13;;;0.60;;
15043;SDS011;7619;48.562;8.910;2023-03-21T14:45:27;0.57;;;0.57;;
15043;SDS011;7619;48.562;8.910;2023-03-21T14:47:57;1.40;;;0.63;;
15043;SDS011;7619;48.562;8.910;2023-03-21T14:50:30;1.57;;;0.73;;
15043;SDS011;7619;48.562;8.910;2023-03-21T14:53:02;1.07;;;0.57;;
15043;SDS011;7619;48.562;8.910;2023-03-21T14:55:30;1.80;;;0.50;;
15043;SDS011;7619;48.562;8.910;2023-03-21T14:58:00;0.50;;;0.47;;
15043;SDS011;7619;48.562;8.910;2023-03-21T15:00:29;1.60;;;0.30;;
15043;SDS011;7619;48.562;8.910;2023-03-21T15:03:01;0.90;;;0.70;;
15043;SDS011;7619;48.562;8.910;2023-03-21T15:05:29;0.60;;;0.60;;
15043;SDS011;7619;48.562;8.910;2023-03-21T15:07:59;0.60;;;0.60;;
15043;SDS011;7619;48.562;8.910;2023-03-21T15:10:29;1.20;;;0.50;;
15043;SDS011;7619;48.562;8.910;2023-03-21T15:13:00;0.43;;;0.43;;
15043;SDS011;7619;48.562;8.910;2023-03-21T15:15:28;1.47;;;0.47;;
15043;SDS011;7619;48.562;8.910;2023-03-21T15:18:00;0.47;;;0.47;;
15043;SDS011;7619;48.562;8.910;2023-03-21T15:20:31;0.70;;;0.70;;
15043;SDS011;7619;48.562;8.910;2023-03-21T15:23:01;0.77;;;0.60;;
15043;SDS011;7619;48.562;8.910;2023-03-21T15:28:12;0.40;;;0.40;;
15043;SDS011;7619;48.562;8.910;2023-03-21T15:30:46;0.80;;;0.70;;
15043;SDS011;7619;48.562;8.910;2023-03-21T15:33:17;0.40;;;0.40;;
15043;SDS011;7619;48.562;8.910;2023-03-21T15:35:49;0.40;;;0.40;;
15043;SDS011;7619;48.562;8.910;2023-03-21T15:38:21;0.57;;;0.57;;
15043;SDS011;7619;48.562;8.910;2023-03-21T15:40:50;1.80;;;0.80;;
15043;SDS011;7619;48.562;8.910;2023-03-21T15:43:20;0.70;;;0.70;;
15043;SDS011;7619;48.562;8.910;2023-03-21T15:45:50;0.73;;;0.67;;
15043;SDS011;7619;48.562;8.910;2023-03-21T15:48:24;1.00;;;0.80;;
15043;SDS011;7619;48.562;8.910;2023-03-21T15:50:51;1.33;;;1.10;;
15043;SDS011;7619;48.562;8.910;2023-03-21T15:53:23;1.27;;;0.70;;
15043;SDS011;7619;48.562;8.910;2023-03-21T15:55:52;0.80;;;0.80;;
15043;SDS011;7619;48.562;8.910;2023-03-21T15:58:26;4.63;;;0.77;;
15043;SDS011;7619;48.562;8.910;2023-03-21T16:01:00;0.80;;;0.67;;
15043;SDS011;7619;48.562;8.910;2023-03-21T16:03:34;0.87;;;0.87;;
15043;SDS011;7619;48.562;8.910;2023-03-21T16:06:06;1.00;;;0.70;;
15043;SDS011;7619;48.562;8.910;2023-03-21T16:08:44;1.43;;;0.60;;
15043;SDS011;7619;48.562;8.910;2023-03-21T16:11:15;1.53;;;0.60;;
15043;SDS011;7619;48.562;8.910;2023-03-21T16:13:42;0.93;;;0.67;;
15043;SDS011;7619;48.562;8.910;2023-03-21T16:16:17;0.67;;;0.67;;
15043;SDS011;7619;48.562;8.910;2023-03-21T16:18:45;2.83;;;0.70;;
15043;SDS011;7619;48.562;8.910;2023-03-21T16:21:15;1.60;;;0.80;;
15043;SDS011;7619;48.562;8.910;2023-03-21T16:23:49;1.67;;;0.70;;